Picacho, New Mexico
Current Conditions -  °F | °C
As of 12:51 AM on Thursday 27 Nov 2014 (Local Time) from KROW Reporting Station
Clear Clear  
Wind Chill: 32°   Ceiling: Unl
Heat Index: 36°   Visibility: 10mi
Dew Point: 27°   Wind: 5mph
Humidity: 70%   Direction: 240°WSW
Pressure: 30.38"   Gusts: NA
Location:  33.41°N, 105.01°W
Report Text: KROW 270751Z AUTO 24004KT 10SM CLR 02/M03 A3038 RMK AO2 SLP263 T00221028
Loading
Personal Weather Stations






























Interactive Weather Map New forecast layout! Learn more

10-Day Weather Forecast

Advertisements
Track Severe Weather on mobile